Time;durP1;ratioP1;P1;durP2;ratioP2;P2;SDS_P1;SDS_P2;PMS_P1;PMS_P2;Temp;Humidity;BMP_temperature;BMP_pressure;BME280_temperature;BME280_humidity;BME280_pressure;Samples;Min_cycle;Max_cycle;Signal;HPM_P1;HPM_P2
2022/10/07 00:01:04;;;;;;;11.75;1.90;;;9.50;1.00;;;;;;4934926;29;20031;-77
2022/10/07 00:03:31;;;;;;;11.95;1.92;;;9.40;1.00;;;;;;4934506;29;20059;-76
2022/10/07 00:06:09;;;;;;;16.13;2.78;;;9.40;1.00;;;;;;4934836;29;20047;-77
2022/10/07 00:08:36;;;;;;;16.58;1.77;;;9.30;1.00;;;;;;4934859;29;20154;-76
2022/10/07 00:11:09;;;;;;;12.23;1.63;;;9.40;1.00;;;;;;4934820;29;20031;-77
2022/10/07 00:13:37;;;;;;;10.35;1.98;;;9.40;1.00;;;;;;4934748;29;20357;-76
2022/10/07 00:16:09;;;;;;;11.48;1.90;;;9.50;1.00;;;;;;4935148;29;20022;-76
2022/10/07 00:18:36;;;;;;;8.05;2.05;;;9.40;1.00;;;;;;4934926;29;20016;-76
2022/10/07 00:21:04;;;;;;;11.82;2.47;;;9.30;1.00;;;;;;4938001;29;20095;-76
2022/10/07 00:23:30;;;;;;;13.27;2.63;;;9.40;1.00;;;;;;4937794;29;20098;-76
2022/10/07 00:25:59;;;;;;;11.45;2.22;;;9.40;1.00;;;;;;4938267;29;20107;-77
2022/10/07 00:28:25;;;;;;;10.40;2.00;;;9.40;1.00;;;;;;4938175;29;20480;-77
2022/10/07 00:31:04;;;;;;;6.97;1.67;;;9.30;1.00;;;;;;4938219;29;20027;-77
2022/10/07 00:33:32;;;;;;;14.10;2.17;;;9.20;1.00;;;;;;4938221;29;20031;-77
2022/10/07 00:35:58;;;;;;;13.27;1.95;;;9.10;1.00;;;;;;4919102;29;20286;-76
2022/10/07 00:38:24;;;;;;;13.75;1.83;;;9.20;1.00;;;;;;4918949;29;20090;-77
2022/10/07 00:40:49;;;;;;;14.15;1.88;;;9.30;1.00;;;;;;4919071;29;20028;-77
2022/10/07 00:43:28;;;;;;;13.20;2.42;;;9.30;1.00;;;;;;4919274;29;20043;-77
2022/10/07 00:45:56;;;;;;;9.75;1.92;;;9.50;1.00;;;;;;4920965;29;20021;-77
2022/10/07 00:48:26;;;;;;;6.75;1.60;;;9.40;1.00;;;;;;4921009;29;20060;-77
2022/10/07 00:50:55;;;;;;;10.35;1.75;;;9.30;1.00;;;;;;4920463;29;20368;-77
2022/10/07 00:53:22;;;;;;;19.60;2.50;;;9.40;1.00;;;;;;4919542;29;20433;-77
2022/10/07 00:55:48;;;;;;;15.02;1.90;;;9.30;1.00;;;;;;4918918;29;20039;-77
2022/10/07 00:58:14;;;;;;;12.82;2.03;;;9.30;1.00;;;;;;4918740;29;20024;-77
2022/10/07 01:00:40;;;;;;;8.05;1.60;;;9.40;1.00;;;;;;4918468;29;20024;-77
2022/10/07 01:03:05;;;;;;;9.57;2.08;;;9.20;1.00;;;;;;4918146;29;20063;-77
2022/10/07 01:05:31;;;;;;;14.10;2.08;;;9.30;1.00;;;;;;4918458;29;20036;-77
2022/10/07 01:07:58;;;;;;;11.52;2.05;;;9.30;1.00;;;;;;4918687;29;20539;-77
2022/10/07 01:10:30;;;;;;;12.18;2.10;;;9.20;1.00;;;;;;4918353;29;20024;-77
2022/10/07 01:13:38;;;;;;;9.02;1.73;;;9.40;1.00;;;;;;4932801;29;20043;-77
2022/10/07 01:16:38;;;;;;;14.30;1.95;;;9.30;1.00;;;;;;4902717;29;20046;-77
2022/10/07 01:19:19;;;;;;;8.70;1.60;;;9.20;1.00;;;;;;4918263;29;20020;-77
2022/10/07 01:21:59;;;;;;;9.43;1.60;;;9.30;1.00;;;;;;4918234;29;20039;-77
2022/10/07 01:25:01;;;;;;;13.60;3.03;;;9.30;1.00;;;;;;4918149;29;20055;-77
2022/10/07 01:27:29;;;;;;;9.40;1.90;;;9.30;1.00;;;;;;4918152;29;20032;-77
2022/10/07 01:30:06;;;;;;;16.42;2.20;;;9.20;1.00;;;;;;4917692;29;20024;-76
2022/10/07 01:32:43;;;;;;;10.60;2.00;;;9.30;1.00;;;;;;4917633;29;20055;-77
2022/10/07 01:35:17;;;;;;;14.75;2.10;;;9.30;1.00;;;;;;4918185;29;20028;-77
2022/10/07 01:37:47;;;;;;;14.95;2.05;;;9.20;1.00;;;;;;4917944;29;20036;-77
2022/10/07 01:40:17;;;;;;;11.57;1.95;;;9.40;1.00;;;;;;4921573;29;20035;-77
2022/10/07 01:42:44;;;;;;;11.85;2.00;;;9.40;1.00;;;;;;4936876;29;20092;-77
2022/10/07 01:45:13;;;;;;;12.50;2.30;;;9.50;1.00;;;;;;4936882;29;20075;-77
2022/10/07 01:47:39;;;;;;;10.40;2.03;;;9.40;4.60;;;;;;4937039;29;20078;-77
2022/10/07 01:50:11;;;;;;;10.55;1.85;;;9.40;3.70;;;;;;4936736;29;20106;-77
2022/10/07 01:53:01;;;;;;;13.27;2.00;;;9.40;4.40;;;;;;4936637;29;20540;-77
2022/10/07 01:55:47;;;;;;;12.32;2.13;;;9.30;4.80;;;;;;4917624;29;20357;-77
2022/10/07 01:58:40;;;;;;;12.52;2.05;;;9.30;2.80;;;;;;4917770;29;20147;-77
2022/10/07 02:01:24;;;;;;;12.15;1.90;;;9.40;14.20;;;;;;4917474;29;20030;-77
2022/10/07 02:04:11;;;;;;;13.75;2.00;;;9.60;11.20;;;;;;4917284;29;20045;-77
2022/10/07 02:06:50;;;;;;;18.52;2.20;;;9.50;14.50;;;;;;4917376;29;20103;-77
2022/10/07 02:09:28;;;;;;;14.73;2.28;;;9.40;14.10;;;;;;4917352;29;20100;-77
2022/10/07 02:12:15;;;;;;;14.60;2.40;;;9.40;17.20;;;;;;4924621;29;20416;-77
2022/10/07 02:15:12;;;;;;;10.50;2.20;;;9.50;15.00;;;;;;4936267;29;20016;-77
2022/10/07 02:17:45;;;;;;;14.10;2.22;;;9.50;17.40;;;;;;4936323;29;20051;-77
2022/10/07 02:20:13;;;;;;;15.65;2.28;;;9.50;20.70;;;;;;4928216;29;20046;-77
2022/10/07 02:22:42;;;;;;;13.77;2.80;;;9.40;18.80;;;;;;4917255;29;20036;-77
2022/10/07 02:25:09;;;;;;;16.73;2.60;;;9.50;17.70;;;;;;4925282;29;20024;-77
2022/10/07 02:27:37;;;;;;;12.10;2.70;;;9.40;21.00;;;;;;4935986;29;20070;-77
2022/10/07 02:30:10;;;;;;;10.88;2.20;;;9.40;20.80;;;;;;4936103;29;20420;-77
2022/10/07 02:32:39;;;;;;;16.27;2.58;;;9.40;24.20;;;;;;4935880;29;20039;-77
2022/10/07 02:35:13;;;;;;;19.38;2.60;;;9.30;21.60;;;;;;4945844;29;20035;-76
2022/10/07 02:37:41;;;;;;;19.77;2.90;;;9.40;19.20;;;;;;4955130;29;20043;-77
2022/10/07 02:40:07;;;;;;;17.75;2.42;;;9.30;25.60;;;;;;4954847;29;20091;-77
2022/10/07 02:42:51;;;;;;;19.38;3.10;;;9.30;23.50;;;;;;4954546;28;20031;-77
2022/10/07 02:45:54;;;;;;;16.27;2.78;;;9.40;23.50;;;;;;4954828;29;20019;-76
2022/10/07 02:48:40;;;;;;;12.80;2.20;;;9.30;26.70;;;;;;4942589;29;20057;-77
2022/10/07 02:51:10;;;;;;;15.85;2.67;;;9.30;28.80;;;;;;4954591;29;20043;-76
2022/10/07 02:53:38;;;;;;;13.00;2.42;;;9.40;24.30;;;;;;4954816;29;20039;-76
2022/10/07 02:56:06;;;;;;;16.50;2.60;;;9.40;24.50;;;;;;4954521;29;20086;-77
2022/10/07 02:58:34;;;;;;;13.32;2.72;;;9.50;26.60;;;;;;4950841;29;20026;-76
2022/10/07 03:01:01;;;;;;;12.90;2.50;;;9.40;31.20;;;;;;4935071;29;20458;-76
2022/10/07 03:03:29;;;;;;;15.00;2.92;;;9.60;28.10;;;;;;4935051;29;20047;-77
2022/10/07 03:05:54;;;;;;;17.25;2.80;;;9.50;30.50;;;;;;4935621;29;20448;-77
2022/10/07 03:08:21;;;;;;;16.83;3.28;;;9.50;49.40;;;;;;4935205;29;20020;-76
2022/10/07 03:10:47;;;;;;;17.33;3.13;;;9.50;50.60;;;;;;4935287;29;20469;-76
2022/10/07 03:13:14;;;;;;;15.00;2.63;;;9.70;51.60;;;;;;4935200;29;20464;-77
2022/10/07 03:15:40;;;;;;;16.67;2.50;;;9.70;62.10;;;;;;4935436;29;20034;-76
2022/10/07 03:18:06;;;;;;;18.42;3.38;;;9.60;71.70;;;;;;4935133;29;20048;-77
2022/10/07 03:20:33;;;;;;;16.00;3.15;;;9.70;67.30;;;;;;4935073;29;20031;-76
2022/10/07 03:22:58;;;;;;;13.02;2.90;;;9.70;72.20;;;;;;4935021;29;20537;-76
2022/10/07 03:25:25;;;;;;;21.30;3.20;;;9.70;70.80;;;;;;4935026;29;20020;-77
2022/10/07 03:27:53;;;;;;;17.63;3.10;;;9.60;81.20;;;;;;4935037;29;20016;-77
2022/10/07 03:30:21;;;;;;;19.77;3.97;;;9.70;78.70;;;;;;4935103;29;20028;-77
2022/10/07 03:32:48;;;;;;;15.00;3.13;;;9.70;87.50;;;;;;4935256;29;20028;-76
2022/10/07 03:35:14;;;;;;;17.92;3.40;;;9.70;94.70;;;;;;4935328;29;20024;-76
2022/10/07 03:37:39;;;;;;;17.95;3.05;;;9.60;96.40;;;;;;4935056;29;20078;-77
2022/10/07 03:40:05;;;;;;;19.55;3.38;;;9.70;94.90;;;;;;4935082;29;20463;-77
2022/10/07 03:42:31;;;;;;;20.60;2.90;;;9.70;98.30;;;;;;4934980;29;20479;-77
2022/10/07 03:44:56;;;;;;;15.05;3.28;;;9.80;98.60;;;;;;4934812;29;20078;-77
2022/10/07 03:47:22;;;;;;;19.10;3.03;;;9.80;99.90;;;;;;4935050;29;20024;-77
2022/10/07 03:49:47;;;;;;;14.95;2.58;;;9.70;99.90;;;;;;4934369;29;20035;-76
2022/10/07 03:52:13;;;;;;;15.85;2.65;;;9.70;99.90;;;;;;4934601;29;20486;-76
2022/10/07 03:54:38;;;;;;;16.40;2.72;;;9.60;99.90;;;;;;4936689;29;20028;-76
2022/10/07 03:57:48;;;;;;;19.80;3.10;;;9.70;99.90;;;;;;4938627;29;20589;-76
2022/10/07 03:59:52;;;;;;;18.05;3.10;;;9.60;99.90;;;;;;4938432;29;20047;-77
2022/10/07 04:02:19;;;;;;;17.63;3.33;;;9.70;99.90;;;;;;4938599;29;20090;-77
2022/10/07 04:04:45;;;;;;;18.17;3.40;;;9.80;99.90;;;;;;4924076;29;20063;-76
2022/10/07 04:07:11;;;;;;;21.50;6.75;;;9.70;99.90;;;;;;4936777;29;20487;-76
2022/10/07 04:09:36;;;;;;;27.42;7.55;;;9.60;99.90;;;;;;4938550;29;20136;-76
2022/10/07 04:12:03;;;;;;;19.20;3.97;;;9.60;99.90;;;;;;4938281;29;20546;-76
2022/10/07 04:14:28;;;;;;;20.13;2.95;;;9.60;99.90;;;;;;4938670;29;20015;-76
2022/10/07 04:16:55;;;;;;;19.33;2.70;;;9.70;99.90;;;;;;4938464;29;20087;-77
2022/10/07 04:19:21;;;;;;;18.55;3.45;;;9.70;99.90;;;;;;4938500;29;20043;-77
2022/10/07 04:21:46;;;;;;;22.15;2.80;;;9.80;99.90;;;;;;4938360;29;20480;-76
2022/10/07 04:24:12;;;;;;;17.60;3.17;;;9.70;99.90;;;;;;4938071;29;20407;-77
2022/10/07 04:26:37;;;;;;;17.58;3.03;;;9.70;99.90;;;;;;4938265;29;20468;-77
2022/10/07 04:29:03;;;;;;;17.60;2.70;;;9.60;99.90;;;;;;4938010;29;20054;-77
2022/10/07 04:31:28;;;;;;;17.70;2.45;;;9.70;99.90;;;;;;4937992;29;20096;-77
2022/10/07 04:33:54;;;;;;;17.95;2.83;;;9.70;99.90;;;;;;4937911;29;20026;-76
2022/10/07 04:36:20;;;;;;;23.17;3.45;;;9.70;99.90;;;;;;4938147;29;20360;-76
2022/10/07 04:38:49;;;;;;;13.25;2.28;;;9.80;99.90;;;;;;4937962;29;20032;-77
2022/10/07 04:41:14;;;;;;;14.35;2.78;;;9.90;99.90;;;;;;4937992;29;20024;-76
2022/10/07 04:43:40;;;;;;;18.50;3.22;;;9.90;99.90;;;;;;4937793;29;20024;-77
2022/10/07 04:46:10;;;;;;;20.02;3.80;;;9.90;99.90;;;;;;4937840;29;20024;-77
2022/10/07 04:48:35;;;;;;;13.48;2.90;;;9.90;99.90;;;;;;4938053;29;20110;-77
2022/10/07 04:51:06;;;;;;;18.98;3.00;;;9.80;99.90;;;;;;4937731;29;20474;-76
2022/10/07 04:53:33;;;;;;;17.63;2.83;;;9.70;99.90;;;;;;4937605;29;20512;-77
2022/10/07 04:55:59;;;;;;;20.67;2.95;;;9.70;99.90;;;;;;4937685;29;20030;-76
2022/10/07 04:58:25;;;;;;;15.10;2.65;;;9.70;99.90;;;;;;4937480;29;20426;-77
2022/10/07 05:00:52;;;;;;;14.05;3.20;;;9.70;99.90;;;;;;4937423;29;20108;-77
2022/10/07 05:03:20;;;;;;;23.58;3.30;;;9.70;99.90;;;;;;4936887;29;20583;-77
2022/10/07 05:05:48;;;;;;;21.80;3.25;;;9.80;99.90;;;;;;4945000;29;20038;-77
2022/10/07 05:08:15;;;;;;;17.42;3.17;;;9.90;99.90;;;;;;4956548;29;20027;-77
2022/10/07 05:10:42;;;;;;;21.25;3.33;;;9.90;99.90;;;;;;4956560;29;20023;-77
2022/10/07 05:13:11;;;;;;;19.02;3.35;;;9.80;99.90;;;;;;4946200;29;20047;-77
2022/10/07 05:15:37;;;;;;;18.67;3.33;;;9.80;99.90;;;;;;4937434;29;20669;-77
2022/10/07 05:18:05;;;;;;;15.25;3.10;;;9.90;99.90;;;;;;4937313;29;20035;-77
2022/10/07 05:20:30;;;;;;;13.02;2.63;;;9.80;99.90;;;;;;4937498;29;20016;-77
2022/10/07 05:22:56;;;;;;;18.92;3.08;;;9.70;99.90;;;;;;4937263;29;20546;-76
2022/10/07 05:25:22;;;;;;;18.80;2.92;;;9.70;99.90;;;;;;4937020;29;20063;-77
2022/10/07 05:27:52;;;;;;;14.23;2.58;;;9.60;99.90;;;;;;4936927;29;20062;-77
2022/10/07 05:30:18;;;;;;;13.57;3.38;;;9.60;99.90;;;;;;4937387;29;20028;-77
2022/10/07 05:32:44;;;;;;;19.70;3.65;;;9.60;99.90;;;;;;4936919;29;20039;-77
2022/10/07 05:35:09;;;;;;;17.45;3.35;;;9.50;99.90;;;;;;4936957;29;20136;-77
2022/10/07 05:37:35;;;;;;;16.55;3.92;;;9.70;99.90;;;;;;4934282;29;20472;-76
2022/10/07 05:40:01;;;;;;;17.15;3.08;;;9.60;99.90;;;;;;4934881;29;20027;-76
2022/10/07 05:42:26;;;;;;;20.23;3.45;;;9.90;99.90;;;;;;4931859;29;20122;-76
2022/10/07 05:44:52;;;;;;;14.63;3.20;;;10.00;99.90;;;;;;4923124;29;20138;-76
2022/10/07 05:47:18;;;;;;;14.88;3.92;;;10.00;99.90;;;;;;4933778;29;20024;-76
2022/10/07 05:49:44;;;;;;;16.60;2.92;;;10.10;99.90;;;;;;4934001;29;20024;-76
2022/10/07 05:52:09;;;;;;;17.65;3.90;;;10.00;99.90;;;;;;4933965;29;20400;-76
2022/10/07 05:54:35;;;;;;;21.23;4.20;;;10.20;99.90;;;;;;4934135;29;20023;-77
2022/10/07 05:57:01;;;;;;;15.43;3.33;;;10.40;99.90;;;;;;4928893;29;20027;-76
2022/10/07 05:59:27;;;;;;;14.18;3.80;;;10.30;99.90;;;;;;4930347;29;20019;-76
2022/10/07 06:01:58;;;;;;;16.80;3.30;;;10.40;99.90;;;;;;4931462;29;20096;-77
2022/10/07 06:04:25;;;;;;;16.58;3.20;;;10.50;99.90;;;;;;4933851;29;20043;-76
2022/10/07 06:06:51;;;;;;;16.42;3.47;;;10.60;99.90;;;;;;4926618;29;20056;-76
2022/10/07 06:14:45;;;;;;;16.02;3.42;;;10.90;99.90;;;;;;4932152;29;20098;-77
2022/10/07 06:17:10;;;;;;;15.93;2.83;;;10.90;99.90;;;;;;4932626;29;20043;-77
2022/10/07 06:19:36;;;;;;;25.50;3.80;;;11.00;99.90;;;;;;4931848;29;20118;-76
2022/10/07 06:22:02;;;;;;;26.42;4.03;;;11.10;99.90;;;;;;4931201;29;20113;-76
2022/10/07 06:24:28;;;;;;;14.13;2.95;;;11.20;99.90;;;;;;4931162;29;20049;-77
2022/10/07 06:26:54;;;;;;;17.35;3.85;;;11.30;99.90;;;;;;4931897;29;20031;-77
2022/10/07 06:29:20;;;;;;;19.48;3.55;;;11.40;99.90;;;;;;4912668;29;20027;-77
2022/10/07 06:31:46;;;;;;;12.35;3.13;;;11.50;99.90;;;;;;4932995;29;20488;-77
2022/10/07 06:34:11;;;;;;;18.38;4.32;;;11.70;99.90;;;;;;4931430;29;20051;-77
2022/10/07 06:36:37;;;;;;;19.98;3.13;;;11.70;99.90;;;;;;4931515;29;20032;-77
2022/10/07 06:39:02;;;;;;;16.38;3.47;;;11.80;99.90;;;;;;4929570;29;20036;-77
2022/10/07 06:41:28;;;;;;;15.18;3.70;;;11.80;99.90;;;;;;4929410;29;20345;-77
2022/10/07 06:43:56;;;;;;;23.55;3.35;;;11.90;99.90;;;;;;4930042;29;20518;-77
2022/10/07 06:46:21;;;;;;;19.10;4.30;;;12.00;99.90;;;;;;4931137;29;20032;-77
2022/10/07 06:48:47;;;;;;;21.48;3.60;;;12.10;99.90;;;;;;4929319;29;20030;-77
2022/10/07 06:51:14;;;;;;;14.05;3.35;;;12.10;99.90;;;;;;4928802;29;20149;-77
2022/10/07 06:53:40;;;;;;;12.82;3.33;;;12.30;99.90;;;;;;4931408;29;20093;-76
2022/10/07 06:56:07;;;;;;;14.38;3.50;;;12.50;88.00;;;;;;4931106;29;20032;-77
2022/10/07 06:58:33;;;;;;;15.02;3.53;;;14.30;1.00;;;;;;4932423;29;20046;-77
2022/10/07 07:00:59;;;;;;;13.38;3.50;;;16.30;99.90;;;;;;4932333;29;20534;-76
2022/10/07 07:03:25;;;;;;;17.98;3.28;;;17.70;99.90;;;;;;4932638;29;20294;-77
2022/10/07 07:05:51;;;;;;;9.52;2.58;;;18.70;99.90;;;;;;4930290;29;20095;-77
2022/10/07 07:08:18;;;;;;;13.35;3.15;;;20.50;99.90;;;;;;4928910;29;20428;-77
2022/10/07 07:10:44;;;;;;;11.95;2.92;;;21.40;97.30;;;;;;4932054;29;20039;-77
2022/10/07 07:13:11;;;;;;;10.95;2.28;;;22.40;71.30;;;;;;4930129;29;20079;-77
2022/10/07 07:15:37;;;;;;;19.92;2.92;;;23.70;23.20;;;;;;4932836;29;20116;-77
2022/10/07 07:18:06;;;;;;;13.05;2.90;;;23.80;11.90;;;;;;4933108;29;20046;-77
2022/10/07 07:20:36;;;;;;;12.88;2.50;;;24.90;6.00;;;;;;4927175;29;20029;-76
2022/10/07 07:23:05;;;;;;;;;;;25.50;1.00;;;;;;4928211;29;20043;-77
2022/10/07 07:25:35;;;;;;;9.60;2.58;;;25.60;1.00;;;;;;4928512;29;19911;-77
2022/10/07 07:28:01;;;;;;;8.20;3.08;;;26.00;1.00;;;;;;4915584;29;20115;-77
2022/10/07 07:30:28;;;;;;;10.15;2.55;;;24.90;1.00;;;;;;4915130;29;20121;-77
2022/10/07 07:32:56;;;;;;;10.02;2.70;;;25.90;1.00;;;;;;4916065;29;20166;-77
2022/10/07 07:35:24;;;;;;;13.35;3.08;;;27.00;1.00;;;;;;4916004;29;20032;-77
2022/10/07 07:37:49;;;;;;;11.43;2.85;;;27.80;1.00;;;;;;4926705;29;20407;-77
2022/10/07 07:40:16;;;;;;;15.23;2.97;;;27.70;1.00;;;;;;4932193;29;20521;-78
2022/10/07 07:42:44;;;;;;;10.43;3.20;;;27.90;1.00;;;;;;4930835;29;20047;-77
2022/10/07 07:45:10;;;;;;;11.52;2.70;;;29.00;1.00;;;;;;4930685;29;20269;-78
2022/10/07 07:47:36;;;;;;;15.88;3.22;;;29.90;1.00;;;;;;4932366;29;20028;-78
2022/10/07 07:50:03;;;;;;;12.63;3.28;;;29.30;1.00;;;;;;4927018;29;20364;-78
2022/10/07 07:52:29;;;;;;;9.20;3.05;;;28.80;1.00;;;;;;4928554;29;20028;-76
2022/10/07 07:54:57;;;;;;;8.48;2.65;;;28.80;1.00;;;;;;4925522;29;20435;-76
2022/10/07 07:57:24;;;;;;;11.40;3.08;;;27.90;1.00;;;;;;4930686;29;20023;-77
2022/10/07 07:59:49;;;;;;;12.13;2.88;;;29.40;1.00;;;;;;4928917;29;20160;-77
2022/10/07 08:02:15;;;;;;;9.13;2.97;;;30.30;1.00;;;;;;4924755;29;20098;-77
2022/10/07 08:04:41;;;;;;;12.68;3.15;;;30.30;1.00;;;;;;4926298;29;20459;-77
2022/10/07 08:07:07;;;;;;;9.23;2.42;;;30.00;1.00;;;;;;4930335;29;20023;-78
2022/10/07 08:09:32;;;;;;;12.38;3.13;;;31.10;1.00;;;;;;4932199;29;20039;-77
2022/10/07 08:11:58;;;;;;;7.45;2.70;;;31.10;1.00;;;;;;4929836;29;20040;-78
2022/10/07 08:14:23;;;;;;;13.82;3.38;;;32.00;1.00;;;;;;4922309;29;20263;-78
2022/10/07 08:16:50;;;;;;;8.13;2.60;;;31.80;1.00;;;;;;4929806;29;20020;-78
2022/10/07 08:19:16;;;;;;;12.13;3.10;;;30.50;1.00;;;;;;4932683;29;20388;-78
2022/10/07 08:21:43;;;;;;;12.27;3.25;;;31.40;1.00;;;;;;4932899;29;20031;-78
2022/10/07 08:24:11;;;;;;;10.90;2.70;;;31.80;1.00;;;;;;4932547;29;20062;-75
2022/10/07 08:26:37;;;;;;;12.23;3.13;;;31.90;1.00;;;;;;4932698;29;20055;-78
2022/10/07 08:29:03;;;;;;;9.70;2.88;;;31.90;1.00;;;;;;4932670;29;20026;-77
2022/10/07 08:31:29;;;;;;;9.38;2.67;;;31.90;1.00;;;;;;4932940;29;20140;-78
2022/10/07 08:33:58;;;;;;;10.43;2.50;;;33.50;1.00;;;;;;4914664;29;20115;-78
2022/10/07 08:36:25;;;;;;;11.93;3.05;;;34.10;1.00;;;;;;4932120;29;20024;-78
2022/10/07 08:38:51;;;;;;;11.32;2.70;;;34.50;1.00;;;;;;4932798;29;20047;-78
2022/10/07 08:41:23;;;;;;;12.43;3.00;;;35.00;1.00;;;;;;4926225;29;20032;-78
2022/10/07 08:43:50;;;;;;;10.02;3.03;;;35.70;1.00;;;;;;4926548;29;20094;-76
2022/10/07 08:46:19;;;;;;;9.93;2.78;;;35.50;1.00;;;;;;4934999;29;20031;-78
2022/10/07 08:48:52;;;;;;;11.52;3.25;;;35.40;1.00;;;;;;4934896;29;20036;-79
2022/10/07 08:51:29;;;;;;;9.70;2.50;;;35.80;1.00;;;;;;4937375;29;20400;-79
2022/10/07 08:53:57;;;;;;;9.30;2.45;;;34.90;1.00;;;;;;4936899;29;20075;-79
2022/10/07 08:56:24;;;;;;;9.00;2.72;;;35.60;1.00;;;;;;4935961;29;20027;-79
2022/10/07 08:59:20;;;;;;;10.38;2.80;;;35.40;1.00;;;;;;4937583;29;20098;-79
2022/10/07 09:02:18;;;;;;;8.70;3.22;;;35.50;1.00;;;;;;4927300;29;20095;-78
2022/10/07 09:04:59;;;;;;;10.32;2.78;;;36.00;1.00;;;;;;4936134;29;20059;-79
2022/10/07 09:07:47;;;;;;;9.63;2.70;;;34.90;1.00;;;;;;4937421;29;20028;-76
2022/10/07 09:10:31;;;;;;;5.97;2.35;;;34.10;1.00;;;;;;4937615;29;20107;-75
2022/10/07 09:13:11;;;;;;;10.98;3.50;;;34.00;1.00;;;;;;4937421;29;20027;-76
2022/10/07 09:15:57;;;;;;;7.97;2.53;;;33.70;1.00;;;;;;4937448;29;20020;-76
2022/10/07 09:18:43;;;;;;;13.65;3.13;;;33.90;1.00;;;;;;4936710;29;20110;-76
2022/10/07 09:21:17;;;;;;;8.18;2.35;;;34.10;1.00;;;;;;4937378;29;20391;-76
2022/10/07 09:23:45;;;;;;;10.35;2.33;;;34.10;1.00;;;;;;4937393;29;20645;-76
2022/10/07 09:26:12;;;;;;;9.30;2.67;;;33.30;1.00;;;;;;4936892;29;20109;-76
2022/10/07 09:28:39;;;;;;;11.07;2.88;;;33.20;1.00;;;;;;4930017;29;20380;-76
2022/10/07 09:31:05;;;;;;;7.93;2.88;;;32.70;1.00;;;;;;4932799;29;20020;-78
2022/10/07 09:33:35;;;;;;;9.25;2.22;;;32.90;1.00;;;;;;4933305;29;20047;-77
2022/10/07 09:36:08;;;;;;;8.80;2.38;;;32.60;1.00;;;;;;4924354;29;20031;-77
2022/10/07 09:38:36;;;;;;;9.32;2.40;;;32.80;1.00;;;;;;4933158;29;20546;-76
2022/10/07 09:41:19;;;;;;;10.25;2.25;;;32.40;1.00;;;;;;4934522;29;20407;-77
2022/10/07 09:44:02;;;;;;;11.27;3.13;;;31.00;1.00;;;;;;4934387;29;20376;-77
2022/10/07 09:46:47;;;;;;;10.75;2.70;;;31.70;1.00;;;;;;4934291;29;20099;-77
2022/10/07 09:49:28;;;;;;;12.85;2.53;;;31.80;1.00;;;;;;4933987;29;20031;-77
2022/10/07 09:52:03;;;;;;;10.77;2.40;;;32.60;1.00;;;;;;4933909;29;20123;-76
2022/10/07 09:54:31;;;;;;;10.63;2.55;;;31.30;1.00;;;;;;4935028;29;20040;-77
2022/10/07 09:57:00;;;;;;;11.27;2.90;;;30.60;1.00;;;;;;4936405;29;20067;-76
2022/10/07 09:59:34;;;;;;;10.73;3.00;;;30.70;1.00;;;;;;4936667;29;20020;-76
2022/10/07 10:02:23;;;;;;;12.27;2.28;;;30.70;1.00;;;;;;4936477;29;20491;-76
2022/10/07 10:04:53;;;;;;;10.63;2.60;;;30.40;1.00;;;;;;4936570;29;20131;-76
2022/10/07 10:07:21;;;;;;;13.13;2.28;;;29.60;1.00;;;;;;4930811;29;20395;-77
2022/10/07 10:09:52;;;;;;;10.70;2.80;;;27.10;1.00;;;;;;4928515;29;20055;-76
2022/10/07 10:12:19;;;;;;;15.75;3.30;;;26.30;1.00;;;;;;4937670;29;20118;-76
2022/10/07 10:14:46;;;;;;;12.95;3.13;;;24.60;1.00;;;;;;4934348;29;20024;-76
2022/10/07 10:17:27;;;;;;;10.05;2.38;;;23.60;1.00;;;;;;4933968;29;20028;-76
2022/10/07 10:19:54;;;;;;;10.00;2.53;;;23.10;1.00;;;;;;4931869;29;20069;-75
2022/10/07 10:22:30;;;;;;;9.63;2.83;;;22.40;1.00;;;;;;4931959;29;20035;-76
2022/10/07 10:27:43;;;;;;;8.77;2.55;;;21.70;1.00;;;;;;4930443;29;20047;-76
2022/10/07 10:30:16;;;;;;;9.05;2.85;;;21.70;1.00;;;;;;4932665;29;20547;-76
2022/10/07 10:33:24;;;;;;;7.57;2.47;;;21.70;1.00;;;;;;4932730;29;20031;-76
2022/10/07 10:36:00;;;;;;;10.75;2.40;;;21.90;1.00;;;;;;4881924;29;20029;-76
2022/10/07 10:39:09;;;;;;;8.95;2.72;;;21.80;1.00;;;;;;4891106;29;20028;-76
2022/10/07 10:41:50;;;;;;;8.88;2.55;;;21.70;1.00;;;;;;4888698;29;20459;-76
2022/10/07 10:44:48;;;;;;;10.93;3.17;;;21.40;1.00;;;;;;4930814;29;20094;-76
2022/10/07 10:47:51;;;;;;;8.02;2.60;;;21.40;1.00;;;;;;4910841;29;20051;-76
2022/10/07 10:50:27;;;;;;;11.55;2.15;;;21.10;1.00;;;;;;4932086;29;20427;-75
2022/10/07 10:53:30;;;;;;;10.98;2.70;;;21.00;1.00;;;;;;4934841;29;21569;-76
2022/10/07 10:56:16;;;;;;;9.88;2.63;;;21.30;1.00;;;;;;4926235;29;20036;-76
2022/10/07 10:59:07;;;;;;;10.93;2.50;;;21.30;1.00;;;;;;4935313;29;20412;-76
2022/10/07 11:01:39;;;;;;;12.50;2.95;;;21.20;1.00;;;;;;4916704;29;20038;-76
2022/10/07 11:04:15;;;;;;;12.15;2.85;;;21.00;1.00;;;;;;4915748;29;20059;-76
2022/10/07 11:06:46;;;;;;;14.25;3.25;;;20.90;1.00;;;;;;4916522;29;20062;-76
2022/10/07 11:09:39;;;;;;;10.90;2.60;;;21.00;1.00;;;;;;4928540;29;20032;-76
2022/10/07 11:12:29;;;;;;;12.05;2.65;;;20.80;1.00;;;;;;4924717;29;20070;-76
2022/10/07 11:15:00;;;;;;;11.63;2.60;;;21.10;1.00;;;;;;4915624;29;20051;-76
2022/10/07 11:17:35;;;;;;;11.15;2.63;;;20.80;1.00;;;;;;4932017;29;20051;-77
2022/10/07 11:20:13;;;;;;;11.18;2.50;;;20.80;1.00;;;;;;4935671;29;20374;-77
2022/10/07 11:22:43;;;;;;;13.02;3.05;;;20.40;1.00;;;;;;4935424;29;20039;-77
2022/10/07 11:25:27;;;;;;;8.32;2.42;;;20.20;1.00;;;;;;4935411;29;20482;-77
2022/10/07 11:28:05;;;;;;;10.75;2.75;;;20.80;1.00;;;;;;4935622;29;20066;-77
2022/10/07 11:30:43;;;;;;;9.90;2.45;;;21.20;1.00;;;;;;4934466;29;20038;-77
2022/10/07 11:33:26;;;;;;;8.15;2.72;;;21.00;1.00;;;;;;4933095;29;20501;-77
2022/10/07 11:35:58;;;;;;;11.00;2.50;;;20.90;1.00;;;;;;4933262;29;20514;-77
2022/10/07 11:38:36;;;;;;;9.18;2.90;;;21.40;1.00;;;;;;4932965;29;20028;-77
2022/10/07 11:41:28;;;;;;;10.50;2.90;;;21.40;1.00;;;;;;4933147;29;20035;-77
2022/10/07 11:43:57;;;;;;;8.93;2.33;;;21.20;1.00;;;;;;4928719;29;20042;-77
2022/10/07 11:46:29;;;;;;;8.73;2.67;;;21.30;1.00;;;;;;4933161;29;20031;-77
2022/10/07 11:49:01;;;;;;;10.85;2.40;;;21.60;1.00;;;;;;4932678;29;20095;-77
2022/10/07 11:51:57;;;;;;;8.70;2.55;;;21.10;1.00;;;;;;4932302;29;20075;-77
2022/10/07 11:54:26;;;;;;;10.98;2.75;;;21.10;1.00;;;;;;4931871;29;20063;-77
2022/10/07 11:56:59;;;;;;;8.40;2.13;;;21.30;1.00;;;;;;4933097;29;20066;-77
2022/10/07 11:59:46;;;;;;;11.05;2.70;;;21.50;1.00;;;;;;4930637;29;20040;-77
2022/10/07 12:02:27;;;;;;;11.75;2.60;;;21.40;1.00;;;;;;4930429;29;20043;-77
2022/10/07 12:04:54;;;;;;;9.60;2.50;;;21.20;1.00;;;;;;4930968;29;20134;-78
2022/10/07 12:07:41;;;;;;;10.70;2.35;;;21.60;1.00;;;;;;4935559;29;20467;-78
2022/10/07 12:10:28;;;;;;;10.23;2.30;;;21.10;1.00;;;;;;4935565;29;20039;-77
2022/10/07 12:13:14;;;;;;;11.02;2.65;;;20.80;1.00;;;;;;4930370;29;20039;-78
2022/10/07 12:15:41;;;;;;;11.13;2.03;;;20.70;1.00;;;;;;4926092;29;20040;-78
2022/10/07 12:18:07;;;;;;;6.63;1.90;;;20.70;1.00;;;;;;4941165;29;20420;-78
2022/10/07 12:20:43;;;;;;;12.68;2.03;;;20.40;1.00;;;;;;4938240;29;20570;-77
2022/10/07 12:23:21;;;;;;;10.77;2.15;;;20.30;1.00;;;;;;4937787;29;20169;-78
2022/10/07 12:25:55;;;;;;;6.85;1.63;;;20.40;1.00;;;;;;4931024;29;20031;-78
2022/10/07 12:28:40;;;;;;;9.60;1.95;;;20.00;1.00;;;;;;4938198;29;20050;-77
2022/10/07 12:31:15;;;;;;;6.47;1.60;;;19.90;1.00;;;;;;4938416;29;20019;-78
2022/10/07 12:34:08;;;;;;;8.07;2.10;;;19.80;1.00;;;;;;4945995;29;20082;-78
2022/10/07 12:36:35;;;;;;;8.18;1.88;;;19.50;1.00;;;;;;4948822;29;20099;-78
2022/10/07 12:39:00;;;;;;;8.70;2.08;;;20.00;1.00;;;;;;4948232;29;20051;-78
2022/10/07 12:41:30;;;;;;;7.80;1.88;;;20.20;1.00;;;;;;4945615;29;20419;-78
2022/10/07 12:44:20;;;;;;;10.65;1.98;;;19.80;1.00;;;;;;4944952;29;20059;-78
2022/10/07 12:46:49;;;;;;;;;;;19.70;1.00;;;;;;4942380;29;20044;-78
2022/10/07 12:49:18;;;;;;;10.27;2.30;;;19.80;1.00;;;;;;4944393;29;19937;-78
2022/10/07 12:51:44;;;;;;;9.43;2.35;;;19.70;1.00;;;;;;4943685;29;20118;-78
2022/10/07 12:54:27;;;;;;;10.15;2.30;;;19.60;1.00;;;;;;4938977;29;20062;-78
2022/10/07 12:56:53;;;;;;;10.38;2.17;;;19.80;1.00;;;;;;4938792;29;20063;-78
2022/10/07 12:59:57;;;;;;;12.68;2.50;;;19.80;1.00;;;;;;4936346;29;20062;-78
2022/10/07 13:02:35;;;;;;;6.95;2.17;;;19.70;1.00;;;;;;4931742;29;20565;-78
2022/10/07 13:05:12;;;;;;;11.52;2.10;;;19.70;1.00;;;;;;4928695;29;20063;-78
2022/10/07 13:08:02;;;;;;;11.35;2.25;;;19.90;1.00;;;;;;4935473;29;20369;-78
2022/10/07 13:10:59;;;;;;;8.63;2.40;;;19.90;1.00;;;;;;4938736;29;20034;-78
2022/10/07 13:13:43;;;;;;;11.57;2.65;;;19.80;1.00;;;;;;4931893;29;20035;-78
2022/10/07 13:16:30;;;;;;;8.45;2.10;;;19.50;1.00;;;;;;4933590;29;20020;-78
2022/10/07 13:19:05;;;;;;;10.70;2.20;;;19.80;1.00;;;;;;4934713;29;20024;-78
2022/10/07 13:21:37;;;;;;;8.98;2.67;;;19.90;1.00;;;;;;4934723;29;20030;-78
2022/10/07 13:24:03;;;;;;;9.15;2.20;;;20.00;1.00;;;;;;4934133;29;20066;-78